Airfield :
LOGIN :

Register | Disclaimer

   EN    FR    IT 

 










Legend :    VFR   Marginal VFR   IFR   Intensive IFR   Very Intensive IFR
Visi :
Ceiling :
>= 8 km
>= 3000ft
5 to 8 km
1000 to 3000 ft
1500m to 5 km
500 to 1000 ft
800 to 1500m
200 to 500 ft
< 800m
< 200 ft
Symbols :   Thunderstorms  Fog  Heavy snow  Heavy precipitations  Wind > 20 kt
SIGMETs :     Misc.  Thunderstorms  Icing  Turbulence  Mountain Waves  Volcanic Ashes






- Airport Elevation : 53 ft
- IATA code : AGP


LEMG - Malaga

CURRENT METAR :
  • 021430Z 29007KT 230V330 9999 SCT020 FEW030TCU BKN050 13/08 Q1012 NOSIG

EXPIRED METARs :
  • 021400Z 25011KT 200V280 9999 SCT020 FEW030TCU BKN070 14/08 Q1011 NOSIG
  • 021330Z 18009KT 120V220 9999 SCT020 FEW040TCU BKN070 13/09 Q1011 NOSIG
  • 021300Z 14005KT 040V170 9999 SCT020 FEW040TCU 14/09 Q1011 NOSIG
  • 021230Z 13004KT 9999 SCT020 FEW040TCU 14/10 Q1011 NOSIG
  • 021200Z 00000KT 9999 FEW020 SCT040 15/10 Q1011 NOSIG

TAF AMD TAF LEMG
Valid from the 02 at 14:00 until the 03 at 12:00 UTC


021409Z 0214/0312 14007KT 9999 SCT020 BKN040 TX17/0312Z TN10/0306Z
PROB40
TEMPO 0214/0217 27010KT 4000 SHRA SCT020TCU BKN030
PROB30
TEMPO 0214/0216 3000 TSRA BKN020CB
BECMG 0216/0219 29009KT



MET'MAP, your aeronautical weather chart ! - Copyright ORBIFLY December 2007 - Disclaimer

ORBIFLY MET'MAP TEAM :

Programming & Development : Alexandra Zaïnal
Concept & original design : Baudouin d'Aumeries
Assistance for programming : Marc-Olivier Méhu
Technical & hardware support : Manuel Goepfert

Contact : metmap@orbifly.com




SOURCES & CREDITS :

   NOAA